sensor_id;sensor_type;location;lat;lon;timestamp;P1;durP1;ratioP1;P2;durP2;ratioP2
36449;SDS011;22475;51.390;7.180;2023-01-20T00:01:03;5.05;;;4.50;;
36449;SDS011;22475;51.390;7.180;2023-01-20T00:03:30;13.48;;;7.03;;
36449;SDS011;22475;51.390;7.180;2023-01-20T00:05:57;7.93;;;6.30;;
36449;SDS011;22475;51.390;7.180;2023-01-20T00:08:25;6.07;;;4.65;;
36449;SDS011;22475;51.390;7.180;2023-01-20T00:10:52;5.72;;;3.83;;
36449;SDS011;22475;51.390;7.180;2023-01-20T00:13:19;10.75;;;7.07;;
36449;SDS011;22475;51.390;7.180;2023-01-20T00:15:46;4.50;;;4.10;;
36449;SDS011;22475;51.390;7.180;2023-01-20T00:18:12;6.65;;;4.43;;
36449;SDS011;22475;51.390;7.180;2023-01-20T00:20:39;11.10;;;6.43;;
36449;SDS011;22475;51.390;7.180;2023-01-20T00:23:08;5.93;;;4.18;;
36449;SDS011;22475;51.390;7.180;2023-01-20T00:25:36;8.68;;;4.80;;
36449;SDS011;22475;51.390;7.180;2023-01-20T00:28:03;7.68;;;4.60;;
36449;SDS011;22475;51.390;7.180;2023-01-20T00:30:33;8.85;;;6.82;;
36449;SDS011;22475;51.390;7.180;2023-01-20T00:32:59;9.52;;;6.80;;
36449;SDS011;22475;51.390;7.180;2023-01-20T00:35:26;5.65;;;5.05;;
36449;SDS011;22475;51.390;7.180;2023-01-20T00:37:53;12.43;;;8.18;;
36449;SDS011;22475;51.390;7.180;2023-01-20T00:40:19;8.77;;;6.43;;
36449;SDS011;22475;51.390;7.180;2023-01-20T00:42:47;8.73;;;6.05;;
36449;SDS011;22475;51.390;7.180;2023-01-20T00:45:17;12.82;;;8.45;;
36449;SDS011;22475;51.390;7.180;2023-01-20T00:47:44;6.72;;;5.28;;
36449;SDS011;22475;51.390;7.180;2023-01-20T00:50:11;10.27;;;6.65;;
36449;SDS011;22475;51.390;7.180;2023-01-20T00:52:37;6.40;;;4.88;;
36449;SDS011;22475;51.390;7.180;2023-01-20T00:55:04;7.53;;;5.07;;
36449;SDS011;22475;51.390;7.180;2023-01-20T00:57:31;7.70;;;5.65;;
36449;SDS011;22475;51.390;7.180;2023-01-20T00:59:59;11.13;;;7.25;;
36449;SDS011;22475;51.390;7.180;2023-01-20T01:02:26;14.85;;;8.75;;
36449;SDS011;22475;51.390;7.180;2023-01-20T01:04:53;11.30;;;7.82;;
36449;SDS011;22475;51.390;7.180;2023-01-20T01:07:19;6.57;;;5.10;;
36449;SDS011;22475;51.390;7.180;2023-01-20T01:09:46;12.48;;;6.80;;
36449;SDS011;22475;51.390;7.180;2023-01-20T01:12:13;8.13;;;5.28;;
36449;SDS011;22475;51.390;7.180;2023-01-20T01:14:40;12.85;;;6.72;;
36449;SDS011;22475;51.390;7.180;2023-01-20T01:17:08;12.88;;;6.78;;
36449;SDS011;22475;51.390;7.180;2023-01-20T01:19:34;15.10;;;7.32;;
36449;SDS011;22475;51.390;7.180;2023-01-20T01:22:01;11.80;;;8.05;;
36449;SDS011;22475;51.390;7.180;2023-01-20T01:24:28;11.60;;;6.82;;
36449;SDS011;22475;51.390;7.180;2023-01-20T01:26:54;17.83;;;8.57;;
36449;SDS011;22475;51.390;7.180;2023-01-20T01:29:21;15.70;;;8.05;;
36449;SDS011;22475;51.390;7.180;2023-01-20T01:31:48;16.73;;;8.65;;
36449;SDS011;22475;51.390;7.180;2023-01-20T01:34:16;7.03;;;4.93;;
36449;SDS011;22475;51.390;7.180;2023-01-20T01:36:43;8.48;;;5.25;;
36449;SDS011;22475;51.390;7.180;2023-01-20T01:39:09;12.88;;;7.22;;
36449;SDS011;22475;51.390;7.180;2023-01-20T01:41:36;9.88;;;5.65;;
36449;SDS011;22475;51.390;7.180;2023-01-20T01:44:05;15.63;;;8.23;;
36449;SDS011;22475;51.390;7.180;2023-01-20T01:46:33;10.40;;;5.47;;
36449;SDS011;22475;51.390;7.180;2023-01-20T01:49:01;16.10;;;9.00;;
36449;SDS011;22475;51.390;7.180;2023-01-20T01:51:34;12.45;;;8.40;;
36449;SDS011;22475;51.390;7.180;2023-01-20T01:54:04;14.60;;;8.57;;
36449;SDS011;22475;51.390;7.180;2023-01-20T01:56:34;8.50;;;5.72;;
36449;SDS011;22475;51.390;7.180;2023-01-20T01:59:02;16.58;;;9.23;;
36449;SDS011;22475;51.390;7.180;2023-01-20T02:01:30;14.75;;;8.50;;
36449;SDS011;22475;51.390;7.180;2023-01-20T02:03:59;12.18;;;8.13;;
36449;SDS011;22475;51.390;7.180;2023-01-20T02:06:30;17.25;;;7.30;;
36449;SDS011;22475;51.390;7.180;2023-01-20T02:09:02;14.57;;;9.10;;
36449;SDS011;22475;51.390;7.180;2023-01-20T02:11:29;12.90;;;7.88;;
36449;SDS011;22475;51.390;7.180;2023-01-20T02:14:00;8.60;;;5.90;;
36449;SDS011;22475;51.390;7.180;2023-01-20T02:16:31;15.18;;;8.80;;
36449;SDS011;22475;51.390;7.180;2023-01-20T02:19:08;9.52;;;6.72;;
36449;SDS011;22475;51.390;7.180;2023-01-20T02:21:57;15.77;;;8.52;;
36449;SDS011;22475;51.390;7.180;2023-01-20T02:30:47;11.70;;;7.25;;
36449;SDS011;22475;51.390;7.180;2023-01-20T02:33:39;13.10;;;6.95;;
36449;SDS011;22475;51.390;7.180;2023-01-20T02:36:12;13.27;;;5.88;;
36449;SDS011;22475;51.390;7.180;2023-01-20T02:38:45;7.00;;;5.45;;
36449;SDS011;22475;51.390;7.180;2023-01-20T02:41:22;8.90;;;6.18;;
36449;SDS011;22475;51.390;7.180;2023-01-20T02:43:54;10.30;;;6.25;;
36449;SDS011;22475;51.390;7.180;2023-01-20T02:46:42;15.65;;;8.68;;
36449;SDS011;22475;51.390;7.180;2023-01-20T02:49:16;9.73;;;6.20;;
36449;SDS011;22475;51.390;7.180;2023-01-20T02:51:49;16.05;;;9.25;;
36449;SDS011;22475;51.390;7.180;2023-01-20T02:54:20;9.48;;;7.03;;
36449;SDS011;22475;51.390;7.180;2023-01-20T02:56:52;10.30;;;7.22;;
36449;SDS011;22475;51.390;7.180;2023-01-20T02:59:22;12.95;;;6.63;;
36449;SDS011;22475;51.390;7.180;2023-01-20T03:01:54;14.60;;;6.43;;
36449;SDS011;22475;51.390;7.180;2023-01-20T03:04:28;14.15;;;7.68;;
36449;SDS011;22475;51.390;7.180;2023-01-20T03:06:58;11.55;;;6.47;;
36449;SDS011;22475;51.390;7.180;2023-01-20T03:09:26;10.38;;;6.40;;
36449;SDS011;22475;51.390;7.180;2023-01-20T03:11:56;16.02;;;8.15;;
36449;SDS011;22475;51.390;7.180;2023-01-20T03:14:29;7.82;;;5.68;;
36449;SDS011;22475;51.390;7.180;2023-01-20T03:16:56;11.55;;;5.97;;
36449;SDS011;22475;51.390;7.180;2023-01-20T03:19:23;17.60;;;9.75;;
36449;SDS011;22475;51.390;7.180;2023-01-20T03:21:51;11.65;;;6.07;;
36449;SDS011;22475;51.390;7.180;2023-01-20T03:24:18;14.57;;;8.90;;
36449;SDS011;22475;51.390;7.180;2023-01-20T03:26:47;11.82;;;7.38;;
36449;SDS011;22475;51.390;7.180;2023-01-20T03:29:13;17.45;;;9.77;;
36449;SDS011;22475;51.390;7.180;2023-01-20T03:31:42;17.48;;;7.95;;
36449;SDS011;22475;51.390;7.180;2023-01-20T03:34:13;19.67;;;9.50;;
36449;SDS011;22475;51.390;7.180;2023-01-20T03:36:43;17.55;;;7.53;;
36449;SDS011;22475;51.390;7.180;2023-01-20T03:39:12;10.57;;;6.88;;
36449;SDS011;22475;51.390;7.180;2023-01-20T03:41:41;13.07;;;7.38;;
36449;SDS011;22475;51.390;7.180;2023-01-20T03:44:17;10.77;;;6.95;;
36449;SDS011;22475;51.390;7.180;2023-01-20T03:46:51;14.88;;;8.63;;
36449;SDS011;22475;51.390;7.180;2023-01-20T03:49:25;14.85;;;7.70;;
36449;SDS011;22475;51.390;7.180;2023-01-20T03:51:58;9.32;;;5.97;;
36449;SDS011;22475;51.390;7.180;2023-01-20T03:54:30;7.80;;;5.82;;
36449;SDS011;22475;51.390;7.180;2023-01-20T03:57:03;13.38;;;7.10;;
36449;SDS011;22475;51.390;7.180;2023-01-20T03:59:34;12.02;;;7.38;;
36449;SDS011;22475;51.390;7.180;2023-01-20T04:02:04;24.40;;;10.02;;
36449;SDS011;22475;51.390;7.180;2023-01-20T04:04:33;14.40;;;8.50;;
36449;SDS011;22475;51.390;7.180;2023-01-20T04:07:03;16.40;;;7.55;;
36449;SDS011;22475;51.390;7.180;2023-01-20T04:09:34;9.18;;;5.95;;
36449;SDS011;22475;51.390;7.180;2023-01-20T04:12:03;11.50;;;7.47;;
36449;SDS011;22475;51.390;7.180;2023-01-20T04:14:30;13.45;;;6.65;;
36449;SDS011;22475;51.390;7.180;2023-01-20T04:16:57;11.70;;;7.65;;
36449;SDS011;22475;51.390;7.180;2023-01-20T04:19:24;17.67;;;8.73;;
36449;SDS011;22475;51.390;7.180;2023-01-20T04:21:52;12.40;;;7.60;;
36449;SDS011;22475;51.390;7.180;2023-01-20T04:24:25;13.85;;;8.02;;
36449;SDS011;22475;51.390;7.180;2023-01-20T04:26:56;10.27;;;6.00;;
36449;SDS011;22475;51.390;7.180;2023-01-20T04:29:23;14.68;;;7.65;;
36449;SDS011;22475;51.390;7.180;2023-01-20T04:31:50;8.57;;;5.93;;
36449;SDS011;22475;51.390;7.180;2023-01-20T04:34:23;13.02;;;7.80;;
36449;SDS011;22475;51.390;7.180;2023-01-20T04:36:50;13.95;;;7.72;;
36449;SDS011;22475;51.390;7.180;2023-01-20T04:39:16;11.95;;;6.38;;
36449;SDS011;22475;51.390;7.180;2023-01-20T04:41:43;9.27;;;7.22;;
36449;SDS011;22475;51.390;7.180;2023-01-20T04:44:12;12.82;;;7.63;;
36449;SDS011;22475;51.390;7.180;2023-01-20T04:46:39;8.00;;;5.55;;
36449;SDS011;22475;51.390;7.180;2023-01-20T04:49:05;10.23;;;6.57;;
36449;SDS011;22475;51.390;7.180;2023-01-20T04:51:34;8.35;;;5.88;;
36449;SDS011;22475;51.390;7.180;2023-01-20T04:54:00;12.73;;;5.47;;
36449;SDS011;22475;51.390;7.180;2023-01-20T04:56:27;10.93;;;6.82;;
36449;SDS011;22475;51.390;7.180;2023-01-20T04:58:54;11.65;;;5.88;;
36449;SDS011;22475;51.390;7.180;2023-01-20T05:01:22;15.40;;;7.57;;
36449;SDS011;22475;51.390;7.180;2023-01-20T05:03:49;20.75;;;7.60;;
36449;SDS011;22475;51.390;7.180;2023-01-20T05:06:16;15.82;;;8.93;;
36449;SDS011;22475;51.390;7.180;2023-01-20T05:08:43;13.52;;;8.00;;
36449;SDS011;22475;51.390;7.180;2023-01-20T05:11:09;19.85;;;9.20;;
36449;SDS011;22475;51.390;7.180;2023-01-20T05:13:36;7.30;;;4.75;;
36449;SDS011;22475;51.390;7.180;2023-01-20T05:16:04;9.32;;;5.35;;
36449;SDS011;22475;51.390;7.180;2023-01-20T05:18:32;7.55;;;5.47;;
36449;SDS011;22475;51.390;7.180;2023-01-20T05:20:59;9.63;;;5.60;;
36449;SDS011;22475;51.390;7.180;2023-01-20T05:23:26;10.15;;;6.68;;
36449;SDS011;22475;51.390;7.180;2023-01-20T05:25:53;11.32;;;6.43;;
36449;SDS011;22475;51.390;7.180;2023-01-20T05:28:20;8.52;;;5.57;;
36449;SDS011;22475;51.390;7.180;2023-01-20T05:30:48;10.82;;;8.00;;
36449;SDS011;22475;51.390;7.180;2023-01-20T05:33:16;18.58;;;8.57;;
36449;SDS011;22475;51.390;7.180;2023-01-20T05:35:44;15.48;;;7.38;;
36449;SDS011;22475;51.390;7.180;2023-01-20T05:38:11;11.80;;;7.15;;
36449;SDS011;22475;51.390;7.180;2023-01-20T05:40:37;10.98;;;6.75;;
36449;SDS011;22475;51.390;7.180;2023-01-20T05:43:04;12.80;;;7.47;;
36449;SDS011;22475;51.390;7.180;2023-01-20T05:45:31;11.57;;;7.38;;
36449;SDS011;22475;51.390;7.180;2023-01-20T05:47:58;13.02;;;7.57;;
36449;SDS011;22475;51.390;7.180;2023-01-20T05:50:26;10.23;;;5.95;;
36449;SDS011;22475;51.390;7.180;2023-01-20T05:52:55;14.00;;;7.45;;
36449;SDS011;22475;51.390;7.180;2023-01-20T05:55:22;8.10;;;5.00;;
36449;SDS011;22475;51.390;7.180;2023-01-20T05:57:48;11.63;;;6.43;;
36449;SDS011;22475;51.390;7.180;2023-01-20T06:00:16;11.18;;;6.03;;
36449;SDS011;22475;51.390;7.180;2023-01-20T06:02:43;7.93;;;6.30;;
36449;SDS011;22475;51.390;7.180;2023-01-20T06:05:10;11.73;;;7.20;;
36449;SDS011;22475;51.390;7.180;2023-01-20T06:07:37;11.52;;;7.20;;
36449;SDS011;22475;51.390;7.180;2023-01-20T06:10:05;15.48;;;8.18;;
36449;SDS011;22475;51.390;7.180;2023-01-20T06:12:33;15.55;;;8.20;;
36449;SDS011;22475;51.390;7.180;2023-01-20T06:15:00;13.85;;;8.05;;
36449;SDS011;22475;51.390;7.180;2023-01-20T06:17:27;8.68;;;5.75;;
36449;SDS011;22475;51.390;7.180;2023-01-20T06:19:53;12.52;;;7.45;;
36449;SDS011;22475;51.390;7.180;2023-01-20T06:22:20;5.68;;;4.65;;
36449;SDS011;22475;51.390;7.180;2023-01-20T06:24:47;16.52;;;9.27;;
36449;SDS011;22475;51.390;7.180;2023-01-20T06:27:15;13.05;;;7.45;;
36449;SDS011;22475;51.390;7.180;2023-01-20T06:29:42;13.23;;;6.55;;
36449;SDS011;22475;51.390;7.180;2023-01-20T06:32:08;9.13;;;6.05;;
36449;SDS011;22475;51.390;7.180;2023-01-20T06:34:35;7.75;;;4.75;;
36449;SDS011;22475;51.390;7.180;2023-01-20T06:37:02;8.27;;;5.10;;
36449;SDS011;22475;51.390;7.180;2023-01-20T06:39:29;10.43;;;7.05;;
36449;SDS011;22475;51.390;7.180;2023-01-20T06:41:56;16.63;;;7.95;;
36449;SDS011;22475;51.390;7.180;2023-01-20T06:44:25;12.10;;;7.15;;
36449;SDS011;22475;51.390;7.180;2023-01-20T06:46:52;10.27;;;5.63;;
36449;SDS011;22475;51.390;7.180;2023-01-20T06:49:19;7.45;;;5.25;;
36449;SDS011;22475;51.390;7.180;2023-01-20T06:51:45;10.95;;;5.93;;
36449;SDS011;22475;51.390;7.180;2023-01-20T06:54:13;8.50;;;5.78;;
36449;SDS011;22475;51.390;7.180;2023-01-20T06:56:40;14.55;;;7.85;;
36449;SDS011;22475;51.390;7.180;2023-01-20T06:59:08;10.75;;;6.90;;
36449;SDS011;22475;51.390;7.180;2023-01-20T07:01:36;16.45;;;6.75;;
36449;SDS011;22475;51.390;7.180;2023-01-20T07:04:02;10.48;;;6.70;;
36449;SDS011;22475;51.390;7.180;2023-01-20T07:06:30;6.65;;;4.43;;
36449;SDS011;22475;51.390;7.180;2023-01-20T07:08:59;11.50;;;5.68;;
36449;SDS011;22475;51.390;7.180;2023-01-20T07:11:26;12.38;;;6.40;;
36449;SDS011;22475;51.390;7.180;2023-01-20T07:13:55;10.57;;;5.88;;
36449;SDS011;22475;51.390;7.180;2023-01-20T07:16:22;12.27;;;8.00;;
36449;SDS011;22475;51.390;7.180;2023-01-20T07:18:50;8.07;;;5.28;;
36449;SDS011;22475;51.390;7.180;2023-01-20T07:21:18;7.43;;;5.18;;
36449;SDS011;22475;51.390;7.180;2023-01-20T07:23:45;6.20;;;5.43;;
36449;SDS011;22475;51.390;7.180;2023-01-20T07:26:13;8.23;;;5.88;;
36449;SDS011;22475;51.390;7.180;2023-01-20T07:28:41;10.65;;;5.93;;
36449;SDS011;22475;51.390;7.180;2023-01-20T07:31:08;10.65;;;6.63;;
36449;SDS011;22475;51.390;7.180;2023-01-20T07:33:37;6.57;;;5.25;;
36449;SDS011;22475;51.390;7.180;2023-01-20T07:36:05;11.45;;;5.93;;
36449;SDS011;22475;51.390;7.180;2023-01-20T07:38:34;9.77;;;5.50;;
36449;SDS011;22475;51.390;7.180;2023-01-20T07:41:01;9.10;;;5.93;;
36449;SDS011;22475;51.390;7.180;2023-01-20T07:43:29;12.38;;;8.13;;
36449;SDS011;22475;51.390;7.180;2023-01-20T07:45:57;11.60;;;7.20;;
36449;SDS011;22475;51.390;7.180;2023-01-20T07:48:24;10.13;;;6.22;;
36449;SDS011;22475;51.390;7.180;2023-01-20T07:50:53;7.82;;;6.07;;
36449;SDS011;22475;51.390;7.180;2023-01-20T07:53:28;8.55;;;5.72;;
36449;SDS011;22475;51.390;7.180;2023-01-20T07:55:55;7.20;;;4.80;;
36449;SDS011;22475;51.390;7.180;2023-01-20T07:58:21;13.35;;;6.80;;
36449;SDS011;22475;51.390;7.180;2023-01-20T08:00:48;8.10;;;5.55;;
36449;SDS011;22475;51.390;7.180;2023-01-20T08:03:15;14.35;;;7.43;;
36449;SDS011;22475;51.390;7.180;2023-01-20T08:05:42;7.35;;;4.72;;
36449;SDS011;22475;51.390;7.180;2023-01-20T08:08:08;9.38;;;5.57;;
36449;SDS011;22475;51.390;7.180;2023-01-20T08:10:36;14.95;;;5.18;;
36449;SDS011;22475;51.390;7.180;2023-01-20T08:13:03;11.55;;;7.05;;
36449;SDS011;22475;51.390;7.180;2023-01-20T08:15:30;9.77;;;6.78;;
36449;SDS011;22475;51.390;7.180;2023-01-20T08:17:57;10.70;;;7.38;;
36449;SDS011;22475;51.390;7.180;2023-01-20T08:20:24;9.00;;;6.25;;
36449;SDS011;22475;51.390;7.180;2023-01-20T08:22:51;13.55;;;5.03;;
36449;SDS011;22475;51.390;7.180;2023-01-20T08:25:18;9.05;;;5.95;;
36449;SDS011;22475;51.390;7.180;2023-01-20T08:27:47;10.32;;;6.40;;
36449;SDS011;22475;51.390;7.180;2023-01-20T08:30:15;7.82;;;4.53;;
36449;SDS011;22475;51.390;7.180;2023-01-20T08:32:42;15.25;;;6.93;;
36449;SDS011;22475;51.390;7.180;2023-01-20T08:35:08;6.38;;;5.05;;
36449;SDS011;22475;51.390;7.180;2023-01-20T08:37:35;12.75;;;6.70;;
36449;SDS011;22475;51.390;7.180;2023-01-20T08:40:03;14.07;;;7.85;;
36449;SDS011;22475;51.390;7.180;2023-01-20T08:42:32;9.25;;;5.35;;
36449;SDS011;22475;51.390;7.180;2023-01-20T08:45:00;11.13;;;7.70;;
36449;SDS011;22475;51.390;7.180;2023-01-20T08:47:27;11.57;;;7.28;;
36449;SDS011;22475;51.390;7.180;2023-01-20T08:49:54;7.57;;;5.53;;
36449;SDS011;22475;51.390;7.180;2023-01-20T08:52:21;5.68;;;4.75;;
36449;SDS011;22475;51.390;7.180;2023-01-20T08:54:49;4.55;;;4.15;;
36449;SDS011;22475;51.390;7.180;2023-01-20T08:57:17;15.07;;;7.72;;
36449;SDS011;22475;51.390;7.180;2023-01-20T08:59:44;7.72;;;5.63;;
36449;SDS011;22475;51.390;7.180;2023-01-20T09:02:12;8.18;;;5.38;;
36449;SDS011;22475;51.390;7.180;2023-01-20T09:04:39;10.50;;;5.03;;
36449;SDS011;22475;51.390;7.180;2023-01-20T09:07:06;9.85;;;6.00;;
36449;SDS011;22475;51.390;7.180;2023-01-20T09:09:36;7.97;;;6.03;;
36449;SDS011;22475;51.390;7.180;2023-01-20T09:12:03;6.47;;;5.85;;
36449;SDS011;22475;51.390;7.180;2023-01-20T09:14:30;11.30;;;5.38;;
36449;SDS011;22475;51.390;7.180;2023-01-20T09:16:57;13.50;;;7.47;;
36449;SDS011;22475;51.390;7.180;2023-01-20T09:19:27;8.48;;;5.28;;
36449;SDS011;22475;51.390;7.180;2023-01-20T09:21:53;11.40;;;8.00;;
36449;SDS011;22475;51.390;7.180;2023-01-20T09:24:20;8.50;;;5.50;;
36449;SDS011;22475;51.390;7.180;2023-01-20T09:26:47;9.30;;;6.85;;
36449;SDS011;22475;51.390;7.180;2023-01-20T09:29:15;5.70;;;4.72;;
36449;SDS011;22475;51.390;7.180;2023-01-20T09:31:43;7.63;;;5.70;;
36449;SDS011;22475;51.390;7.180;2023-01-20T09:34:14;9.88;;;6.68;;
36449;SDS011;22475;51.390;7.180;2023-01-20T09:36:44;6.65;;;4.82;;
36449;SDS011;22475;51.390;7.180;2023-01-20T09:39:11;5.68;;;4.63;;
36449;SDS011;22475;51.390;7.180;2023-01-20T09:41:56;10.13;;;6.03;;
36449;SDS011;22475;51.390;7.180;2023-01-20T09:44:48;6.30;;;4.93;;
36449;SDS011;22475;51.390;7.180;2023-01-20T09:47:24;6.75;;;4.28;;
36449;SDS011;22475;51.390;7.180;2023-01-20T09:50:06;10.15;;;5.22;;
36449;SDS011;22475;51.390;7.180;2023-01-20T09:53:32;5.60;;;4.32;;
36449;SDS011;22475;51.390;7.180;2023-01-20T09:56:09;7.72;;;4.78;;
36449;SDS011;22475;51.390;7.180;2023-01-20T09:58:41;5.75;;;4.70;;
36449;SDS011;22475;51.390;7.180;2023-01-20T10:01:13;12.95;;;8.02;;
36449;SDS011;22475;51.390;7.180;2023-01-20T10:03:46;10.32;;;7.30;;
36449;SDS011;22475;51.390;7.180;2023-01-20T10:06:18;8.23;;;5.20;;
36449;SDS011;22475;51.390;7.180;2023-01-20T10:08:52;6.35;;;5.25;;
36449;SDS011;22475;51.390;7.180;2023-01-20T10:11:23;9.73;;;5.30;;
36449;SDS011;22475;51.390;7.180;2023-01-20T10:13:54;6.55;;;5.15;;
36449;SDS011;22475;51.390;7.180;2023-01-20T10:16:28;8.00;;;5.35;;
36449;SDS011;22475;51.390;7.180;2023-01-20T10:19:01;5.82;;;5.30;;
36449;SDS011;22475;51.390;7.180;2023-01-20T10:21:34;6.03;;;4.88;;
36449;SDS011;22475;51.390;7.180;2023-01-20T10:24:08;7.35;;;4.57;;
36449;SDS011;22475;51.390;7.180;2023-01-20T10:26:41;5.57;;;4.45;;
36449;SDS011;22475;51.390;7.180;2023-01-20T10:29:12;6.38;;;4.80;;
36449;SDS011;22475;51.390;7.180;2023-01-20T10:31:45;11.23;;;6.28;;
36449;SDS011;22475;51.390;7.180;2023-01-20T10:34:18;9.52;;;5.60;;
36449;SDS011;22475;51.390;7.180;2023-01-20T10:36:47;8.73;;;5.28;;
36449;SDS011;22475;51.390;7.180;2023-01-20T10:39:24;12.60;;;6.22;;
36449;SDS011;22475;51.390;7.180;2023-01-20T10:41:56;9.50;;;5.88;;
36449;SDS011;22475;51.390;7.180;2023-01-20T10:44:28;9.85;;;5.03;;
36449;SDS011;22475;51.390;7.180;2023-01-20T10:47:02;7.13;;;4.50;;
36449;SDS011;22475;51.390;7.180;2023-01-20T10:52:48;10.00;;;4.93;;
36449;SDS011;22475;51.390;7.180;2023-01-20T10:55:28;6.78;;;5.20;;
36449;SDS011;22475;51.390;7.180;2023-01-20T10:58:11;9.50;;;5.20;;
36449;SDS011;22475;51.390;7.180;2023-01-20T11:00:43;11.85;;;7.38;;
36449;SDS011;22475;51.390;7.180;2023-01-20T11:03:11;17.02;;;7.78;;
36449;SDS011;22475;51.390;7.180;2023-01-20T11:05:40;12.93;;;6.75;;
36449;SDS011;22475;51.390;7.180;2023-01-20T11:08:08;8.57;;;4.90;;
36449;SDS011;22475;51.390;7.180;2023-01-20T11:10:41;6.43;;;4.53;;
36449;SDS011;22475;51.390;7.180;2023-01-20T11:13:09;9.88;;;5.93;;
36449;SDS011;22475;51.390;7.180;2023-01-20T11:15:37;9.55;;;5.45;;
36449;SDS011;22475;51.390;7.180;2023-01-20T11:18:20;5.38;;;4.78;;
36449;SDS011;22475;51.390;7.180;2023-01-20T11:20:51;9.18;;;5.32;;
36449;SDS011;22475;51.390;7.180;2023-01-20T11:23:22;7.75;;;5.13;;
36449;SDS011;22475;51.390;7.180;2023-01-20T11:25:58;5.80;;;5.18;;
36449;SDS011;22475;51.390;7.180;2023-01-20T11:28:26;18.10;;;5.93;;
36449;SDS011;22475;51.390;7.180;2023-01-20T11:30:59;5.13;;;4.15;;
36449;SDS011;22475;51.390;7.180;2023-01-20T11:33:27;7.53;;;4.57;;
36449;SDS011;22475;51.390;7.180;2023-01-20T11:36:01;11.57;;;4.97;;
36449;SDS011;22475;51.390;7.180;2023-01-20T11:38:29;4.82;;;4.28;;
36449;SDS011;22475;51.390;7.180;2023-01-20T11:40:58;6.95;;;4.45;;
36449;SDS011;22475;51.390;7.180;2023-01-20T11:43:29;6.47;;;4.28;;
36449;SDS011;22475;51.390;7.180;2023-01-20T11:46:15;5.53;;;3.97;;
36449;SDS011;22475;51.390;7.180;2023-01-20T11:48:47;5.18;;;4.68;;
36449;SDS011;22475;51.390;7.180;2023-01-20T11:51:18;5.20;;;4.20;;
36449;SDS011;22475;51.390;7.180;2023-01-20T11:53:48;6.45;;;4.05;;
36449;SDS011;22475;51.390;7.180;2023-01-20T11:56:18;5.53;;;4.53;;
36449;SDS011;22475;51.390;7.180;2023-01-20T11:58:48;4.97;;;3.78;;
36449;SDS011;22475;51.390;7.180;2023-01-20T12:01:21;8.18;;;4.15;;
36449;SDS011;22475;51.390;7.180;2023-01-20T12:03:59;11.38;;;5.18;;
36449;SDS011;22475;51.390;7.180;2023-01-20T12:06:49;6.78;;;3.72;;
36449;SDS011;22475;51.390;7.180;2023-01-20T12:09:22;5.95;;;4.20;;
36449;SDS011;22475;51.390;7.180;2023-01-20T12:11:56;5.03;;;4.30;;
36449;SDS011;22475;51.390;7.180;2023-01-20T12:14:26;6.78;;;3.80;;
36449;SDS011;22475;51.390;7.180;2023-01-20T12:17:03;4.05;;;3.65;;
36449;SDS011;22475;51.390;7.180;2023-01-20T12:19:39;4.13;;;3.35;;
36449;SDS011;22475;51.390;7.180;2023-01-20T12:22:19;4.35;;;3.80;;
36449;SDS011;22475;51.390;7.180;2023-01-20T12:24:52;6.85;;;3.25;;
36449;SDS011;22475;51.390;7.180;2023-01-20T12:27:39;4.43;;;3.47;;
36449;SDS011;22475;51.390;7.180;2023-01-20T12:30:14;5.53;;;3.92;;
36449;SDS011;22475;51.390;7.180;2023-01-20T12:32:52;5.68;;;3.47;;
36449;SDS011;22475;51.390;7.180;2023-01-20T12:35:19;4.07;;;3.47;;
36449;SDS011;22475;51.390;7.180;2023-01-20T12:37:49;8.60;;;3.83;;
36449;SDS011;22475;51.390;7.180;2023-01-20T12:40:24;4.43;;;3.97;;
36449;SDS011;22475;51.390;7.180;2023-01-20T12:43:04;8.10;;;3.47;;
36449;SDS011;22475;51.390;7.180;2023-01-20T12:45:49;8.88;;;2.65;;
36449;SDS011;22475;51.390;7.180;2023-01-20T12:48:28;3.15;;;2.85;;
36449;SDS011;22475;51.390;7.180;2023-01-20T12:51:10;4.63;;;2.80;;
36449;SDS011;22475;51.390;7.180;2023-01-20T12:53:58;6.07;;;3.13;;
36449;SDS011;22475;51.390;7.180;2023-01-20T12:56:36;5.80;;;2.35;;
36449;SDS011;22475;51.390;7.180;2023-01-20T12:59:12;4.15;;;2.65;;
36449;SDS011;22475;51.390;7.180;2023-01-20T13:01:49;3.17;;;2.63;;
36449;SDS011;22475;51.390;7.180;2023-01-20T13:04:35;6.55;;;3.45;;
36449;SDS011;22475;51.390;7.180;2023-01-20T13:07:25;4.13;;;2.83;;
36449;SDS011;22475;51.390;7.180;2023-01-20T13:10:28;5.32;;;3.08;;
36449;SDS011;22475;51.390;7.180;2023-01-20T13:13:19;4.82;;;2.63;;
36449;SDS011;22475;51.390;7.180;2023-01-20T13:15:56;3.20;;;2.90;;
36449;SDS011;22475;51.390;7.180;2023-01-20T13:18:30;4.88;;;4.20;;
36449;SDS011;22475;51.390;7.180;2023-01-20T13:21:07;7.22;;;3.13;;
36449;SDS011;22475;51.390;7.180;2023-01-20T13:23:40;3.67;;;2.53;;
36449;SDS011;22475;51.390;7.180;2023-01-20T13:26:07;5.28;;;2.58;;
36449;SDS011;22475;51.390;7.180;2023-01-20T13:28:34;3.17;;;2.88;;
36449;SDS011;22475;51.390;7.180;2023-01-20T13:31:27;7.60;;;3.67;;
36449;SDS011;22475;51.390;7.180;2023-01-20T13:39:50;2.20;;;2.00;;
36449;SDS011;22475;51.390;7.180;2023-01-20T13:45:17;5.30;;;3.65;;
36449;SDS011;22475;51.390;7.180;2023-01-20T13:47:54;11.30;;;3.92;;
36449;SDS011;22475;51.390;7.180;2023-01-20T13:50:27;5.45;;;3.88;;
36449;SDS011;22475;51.390;7.180;2023-01-20T13:55:56;8.90;;;4.47;;
36449;SDS011;22475;51.390;7.180;2023-01-20T13:58:27;4.10;;;3.35;;
36449;SDS011;22475;51.390;7.180;2023-01-20T14:00:55;6.90;;;4.18;;
36449;SDS011;22475;51.390;7.180;2023-01-20T14:03:25;2.90;;;2.60;;
36449;SDS011;22475;51.390;7.180;2023-01-20T14:05:54;6.23;;;3.47;;
36449;SDS011;22475;51.390;7.180;2023-01-20T14:08:26;3.13;;;2.55;;
36449;SDS011;22475;51.390;7.180;2023-01-20T14:11:08;6.47;;;4.13;;
36449;SDS011;22475;51.390;7.180;2023-01-20T14:13:36;8.85;;;3.80;;
36449;SDS011;22475;51.390;7.180;2023-01-20T14:16:04;6.72;;;3.55;;
36449;SDS011;22475;51.390;7.180;2023-01-20T14:18:32;3.25;;;2.25;;
36449;SDS011;22475;51.390;7.180;2023-01-20T14:21:01;6.07;;;3.20;;
36449;SDS011;22475;51.390;7.180;2023-01-20T14:23:31;6.18;;;4.22;;
36449;SDS011;22475;51.390;7.180;2023-01-20T14:26:09;3.72;;;2.28;;
36449;SDS011;22475;51.390;7.180;2023-01-20T14:28:42;6.40;;;3.53;;
36449;SDS011;22475;51.390;7.180;2023-01-20T14:31:18;5.63;;;3.88;;
36449;SDS011;22475;51.390;7.180;2023-01-20T14:34:00;5.38;;;2.95;;
36449;SDS011;22475;51.390;7.180;2023-01-20T14:36:42;7.70;;;3.83;;
36449;SDS011;22475;51.390;7.180;2023-01-20T14:39:11;3.85;;;2.85;;
36449;SDS011;22475;51.390;7.180;2023-01-20T14:41:45;7.32;;;4.35;;
36449;SDS011;22475;51.390;7.180;2023-01-20T14:44:15;3.88;;;2.80;;
36449;SDS011;22475;51.390;7.180;2023-01-20T14:46:44;4.32;;;3.90;;
36449;SDS011;22475;51.390;7.180;2023-01-20T14:49:15;9.55;;;3.95;;
36449;SDS011;22475;51.390;7.180;2023-01-20T14:51:43;6.03;;;4.22;;
36449;SDS011;22475;51.390;7.180;2023-01-20T14:54:27;5.95;;;3.22;;
36449;SDS011;22475;51.390;7.180;2023-01-20T14:57:09;4.63;;;2.00;;
36449;SDS011;22475;51.390;7.180;2023-01-20T14:59:44;5.47;;;2.10;;
36449;SDS011;22475;51.390;7.180;2023-01-20T15:02:14;4.45;;;2.83;;
36449;SDS011;22475;51.390;7.180;2023-01-20T15:04:45;3.30;;;2.83;;
36449;SDS011;22475;51.390;7.180;2023-01-20T15:07:15;4.50;;;3.40;;
36449;SDS011;22475;51.390;7.180;2023-01-20T15:09:49;6.97;;;2.03;;
36449;SDS011;22475;51.390;7.180;2023-01-20T15:12:32;8.35;;;3.42;;
36449;SDS011;22475;51.390;7.180;2023-01-20T15:15:22;6.95;;;3.50;;
36449;SDS011;22475;51.390;7.180;2023-01-20T15:20:43;5.45;;;3.92;;
36449;SDS011;22475;51.390;7.180;2023-01-20T15:23:13;4.40;;;3.78;;
36449;SDS011;22475;51.390;7.180;2023-01-20T15:25:43;3.75;;;3.38;;